sensor_id;sensor_type;location;lat;lon;timestamp;P1;durP1;ratioP1;P2;durP2;ratioP2
23519;SDS011;11936;50.820;4.336;2024-02-26T00:02:23;2.47;;;1.50;;
23519;SDS011;11936;50.820;4.336;2024-02-26T00:04:48;2.13;;;1.45;;
23519;SDS011;11936;50.820;4.336;2024-02-26T00:07:15;2.83;;;1.13;;
23519;SDS011;11936;50.820;4.336;2024-02-26T00:09:41;1.67;;;1.52;;
23519;SDS011;11936;50.820;4.336;2024-02-26T00:12:06;3.50;;;1.38;;
23519;SDS011;11936;50.820;4.336;2024-02-26T00:14:32;1.55;;;1.45;;
23519;SDS011;11936;50.820;4.336;2024-02-26T00:16:58;2.20;;;1.45;;
23519;SDS011;11936;50.820;4.336;2024-02-26T00:19:23;2.55;;;1.38;;
23519;SDS011;11936;50.820;4.336;2024-02-26T00:21:49;3.10;;;1.48;;
23519;SDS011;11936;50.820;4.336;2024-02-26T00:24:14;2.08;;;1.50;;
23519;SDS011;11936;50.820;4.336;2024-02-26T00:26:40;4.82;;;1.33;;
23519;SDS011;11936;50.820;4.336;2024-02-26T00:29:05;2.22;;;1.80;;
23519;SDS011;11936;50.820;4.336;2024-02-26T00:31:31;2.70;;;1.33;;
23519;SDS011;11936;50.820;4.336;2024-02-26T00:33:56;1.75;;;1.10;;
23519;SDS011;11936;50.820;4.336;2024-02-26T00:36:22;3.03;;;1.40;;
23519;SDS011;11936;50.820;4.336;2024-02-26T00:38:48;2.92;;;1.52;;
23519;SDS011;11936;50.820;4.336;2024-02-26T00:41:19;1.77;;;1.20;;
23519;SDS011;11936;50.820;4.336;2024-02-26T00:43:45;1.67;;;1.58;;
23519;SDS011;11936;50.820;4.336;2024-02-26T00:46:11;2.00;;;1.50;;
23519;SDS011;11936;50.820;4.336;2024-02-26T00:48:37;3.05;;;1.50;;
23519;SDS011;11936;50.820;4.336;2024-02-26T00:51:03;4.28;;;1.30;;
23519;SDS011;11936;50.820;4.336;2024-02-26T00:53:30;6.80;;;1.40;;
23519;SDS011;11936;50.820;4.336;2024-02-26T00:55:56;1.90;;;1.23;;
23519;SDS011;11936;50.820;4.336;2024-02-26T00:58:24;4.85;;;1.50;;
23519;SDS011;11936;50.820;4.336;2024-02-26T01:00:50;1.83;;;1.27;;
23519;SDS011;11936;50.820;4.336;2024-02-26T01:03:16;2.25;;;1.65;;
23519;SDS011;11936;50.820;4.336;2024-02-26T01:05:42;1.45;;;1.30;;
23519;SDS011;11936;50.820;4.336;2024-02-26T01:08:08;1.65;;;1.20;;
23519;SDS011;11936;50.820;4.336;2024-02-26T01:10:33;2.45;;;1.30;;
23519;SDS011;11936;50.820;4.336;2024-02-26T01:12:59;1.40;;;1.30;;
23519;SDS011;11936;50.820;4.336;2024-02-26T01:15:25;1.60;;;1.17;;
23519;SDS011;11936;50.820;4.336;2024-02-26T01:17:50;2.35;;;1.42;;
23519;SDS011;11936;50.820;4.336;2024-02-26T01:20:16;2.15;;;1.25;;
23519;SDS011;11936;50.820;4.336;2024-02-26T01:22:43;3.40;;;1.30;;
23519;SDS011;11936;50.820;4.336;2024-02-26T01:25:09;1.55;;;1.25;;
23519;SDS011;11936;50.820;4.336;2024-02-26T01:27:35;1.60;;;1.23;;
23519;SDS011;11936;50.820;4.336;2024-02-26T01:30:04;1.48;;;1.20;;
23519;SDS011;11936;50.820;4.336;2024-02-26T01:32:31;1.85;;;1.52;;
23519;SDS011;11936;50.820;4.336;2024-02-26T01:34:57;2.90;;;1.30;;
23519;SDS011;11936;50.820;4.336;2024-02-26T01:37:22;3.50;;;1.20;;
23519;SDS011;11936;50.820;4.336;2024-02-26T01:39:48;3.63;;;1.10;;
23519;SDS011;11936;50.820;4.336;2024-02-26T01:42:14;4.57;;;1.65;;
23519;SDS011;11936;50.820;4.336;2024-02-26T01:44:40;2.00;;;1.40;;
23519;SDS011;11936;50.820;4.336;2024-02-26T01:47:05;3.47;;;1.33;;
23519;SDS011;11936;50.820;4.336;2024-02-26T01:49:34;1.63;;;1.38;;
23519;SDS011;11936;50.820;4.336;2024-02-26T01:52:01;1.50;;;1.30;;
23519;SDS011;11936;50.820;4.336;2024-02-26T01:54:29;1.83;;;1.40;;
23519;SDS011;11936;50.820;4.336;2024-02-26T01:56:55;1.48;;;1.20;;
23519;SDS011;11936;50.820;4.336;2024-02-26T01:59:22;3.65;;;1.38;;
23519;SDS011;11936;50.820;4.336;2024-02-26T02:01:49;1.80;;;1.20;;
23519;SDS011;11936;50.820;4.336;2024-02-26T02:04:19;0.95;;;0.95;;
23519;SDS011;11936;50.820;4.336;2024-02-26T02:06:45;2.42;;;1.10;;
23519;SDS011;11936;50.820;4.336;2024-02-26T02:09:12;0.77;;;0.77;;
23519;SDS011;11936;50.820;4.336;2024-02-26T02:11:37;1.73;;;1.20;;
23519;SDS011;11936;50.820;4.336;2024-02-26T02:14:03;2.13;;;1.25;;
23519;SDS011;11936;50.820;4.336;2024-02-26T02:16:29;4.68;;;1.17;;
23519;SDS011;11936;50.820;4.336;2024-02-26T02:18:54;2.92;;;1.40;;
23519;SDS011;11936;50.820;4.336;2024-02-26T02:21:20;1.33;;;1.23;;
23519;SDS011;11936;50.820;4.336;2024-02-26T02:23:45;2.15;;;1.27;;
23519;SDS011;11936;50.820;4.336;2024-02-26T02:26:12;2.85;;;1.20;;
23519;SDS011;11936;50.820;4.336;2024-02-26T02:28:38;2.45;;;1.30;;
23519;SDS011;11936;50.820;4.336;2024-02-26T02:31:05;2.58;;;1.10;;
23519;SDS011;11936;50.820;4.336;2024-02-26T02:33:31;2.22;;;1.08;;
23519;SDS011;11936;50.820;4.336;2024-02-26T02:35:57;1.90;;;1.40;;
23519;SDS011;11936;50.820;4.336;2024-02-26T02:38:23;0.90;;;0.85;;
23519;SDS011;11936;50.820;4.336;2024-02-26T02:40:51;4.93;;;1.10;;
23519;SDS011;11936;50.820;4.336;2024-02-26T02:43:17;1.55;;;1.15;;
23519;SDS011;11936;50.820;4.336;2024-02-26T02:45:42;1.90;;;1.30;;
23519;SDS011;11936;50.820;4.336;2024-02-26T02:48:08;2.03;;;1.10;;
23519;SDS011;11936;50.820;4.336;2024-02-26T02:50:33;1.80;;;1.10;;
23519;SDS011;11936;50.820;4.336;2024-02-26T02:52:59;1.10;;;1.08;;
23519;SDS011;11936;50.820;4.336;2024-02-26T02:55:25;1.25;;;1.15;;
23519;SDS011;11936;50.820;4.336;2024-02-26T02:57:50;1.95;;;0.88;;
23519;SDS011;11936;50.820;4.336;2024-02-26T03:00:16;1.23;;;1.00;;
23519;SDS011;11936;50.820;4.336;2024-02-26T03:02:42;0.82;;;0.82;;
23519;SDS011;11936;50.820;4.336;2024-02-26T03:05:09;0.93;;;0.90;;
23519;SDS011;11936;50.820;4.336;2024-02-26T03:07:35;2.33;;;1.00;;
23519;SDS011;11936;50.820;4.336;2024-02-26T03:10:01;1.35;;;1.10;;
23519;SDS011;11936;50.820;4.336;2024-02-26T03:12:27;1.30;;;1.20;;
23519;SDS011;11936;50.820;4.336;2024-02-26T03:14:53;1.00;;;1.00;;
23519;SDS011;11936;50.820;4.336;2024-02-26T03:17:19;1.30;;;1.20;;
23519;SDS011;11936;50.820;4.336;2024-02-26T03:19:46;0.80;;;0.80;;
23519;SDS011;11936;50.820;4.336;2024-02-26T03:22:12;2.53;;;1.17;;
23519;SDS011;11936;50.820;4.336;2024-02-26T03:24:38;1.23;;;1.10;;
23519;SDS011;11936;50.820;4.336;2024-02-26T03:27:04;3.65;;;1.40;;
23519;SDS011;11936;50.820;4.336;2024-02-26T03:29:34;1.02;;;0.93;;
23519;SDS011;11936;50.820;4.336;2024-02-26T03:32:00;1.88;;;1.13;;
23519;SDS011;11936;50.820;4.336;2024-02-26T03:34:26;1.15;;;1.05;;
23519;SDS011;11936;50.820;4.336;2024-02-26T03:36:52;1.63;;;1.10;;
23519;SDS011;11936;50.820;4.336;2024-02-26T03:39:20;3.80;;;1.00;;
23519;SDS011;11936;50.820;4.336;2024-02-26T03:41:46;2.30;;;1.20;;
23519;SDS011;11936;50.820;4.336;2024-02-26T03:44:11;2.03;;;1.42;;
23519;SDS011;11936;50.820;4.336;2024-02-26T03:46:37;13.52;;;1.48;;
23519;SDS011;11936;50.820;4.336;2024-02-26T03:49:02;1.52;;;1.42;;
23519;SDS011;11936;50.820;4.336;2024-02-26T03:51:28;3.30;;;1.48;;
23519;SDS011;11936;50.820;4.336;2024-02-26T03:53:56;2.67;;;1.20;;
23519;SDS011;11936;50.820;4.336;2024-02-26T03:56:23;1.23;;;1.13;;
23519;SDS011;11936;50.820;4.336;2024-02-26T03:58:49;3.05;;;1.20;;
23519;SDS011;11936;50.820;4.336;2024-02-26T04:01:14;4.00;;;2.10;;
23519;SDS011;11936;50.820;4.336;2024-02-26T04:03:40;2.08;;;1.48;;
23519;SDS011;11936;50.820;4.336;2024-02-26T04:06:08;1.83;;;1.50;;
23519;SDS011;11936;50.820;4.336;2024-02-26T04:08:35;1.40;;;1.30;;
23519;SDS011;11936;50.820;4.336;2024-02-26T04:11:01;1.42;;;1.33;;
23519;SDS011;11936;50.820;4.336;2024-02-26T04:13:32;2.90;;;1.63;;
23519;SDS011;11936;50.820;4.336;2024-02-26T04:15:57;2.05;;;1.48;;
23519;SDS011;11936;50.820;4.336;2024-02-26T04:18:23;3.13;;;1.27;;
23519;SDS011;11936;50.820;4.336;2024-02-26T04:20:49;1.58;;;1.40;;
23519;SDS011;11936;50.820;4.336;2024-02-26T04:23:16;1.17;;;1.10;;
23519;SDS011;11936;50.820;4.336;2024-02-26T04:25:42;2.55;;;1.23;;
23519;SDS011;11936;50.820;4.336;2024-02-26T04:28:07;2.17;;;1.63;;
23519;SDS011;11936;50.820;4.336;2024-02-26T04:30:33;5.57;;;1.38;;
23519;SDS011;11936;50.820;4.336;2024-02-26T04:32:58;4.70;;;1.50;;
23519;SDS011;11936;50.820;4.336;2024-02-26T04:35:24;2.33;;;2.13;;
23519;SDS011;11936;50.820;4.336;2024-02-26T04:37:49;2.70;;;2.13;;
23519;SDS011;11936;50.820;4.336;2024-02-26T04:40:15;2.65;;;2.05;;
23519;SDS011;11936;50.820;4.336;2024-02-26T04:42:41;2.13;;;1.70;;
23519;SDS011;11936;50.820;4.336;2024-02-26T04:45:06;1.75;;;1.65;;
23519;SDS011;11936;50.820;4.336;2024-02-26T04:47:33;2.33;;;1.90;;
23519;SDS011;11936;50.820;4.336;2024-02-26T04:49:59;2.20;;;2.00;;
23519;SDS011;11936;50.820;4.336;2024-02-26T04:52:25;2.78;;;1.73;;
23519;SDS011;11936;50.820;4.336;2024-02-26T04:54:50;2.28;;;2.08;;
23519;SDS011;11936;50.820;4.336;2024-02-26T04:57:16;2.67;;;2.22;;
23519;SDS011;11936;50.820;4.336;2024-02-26T04:59:43;2.88;;;2.22;;
23519;SDS011;11936;50.820;4.336;2024-02-26T05:02:10;3.10;;;2.05;;
23519;SDS011;11936;50.820;4.336;2024-02-26T05:04:36;3.65;;;1.92;;
23519;SDS011;11936;50.820;4.336;2024-02-26T05:07:02;3.33;;;2.03;;
23519;SDS011;11936;50.820;4.336;2024-02-26T05:09:28;4.85;;;2.25;;
23519;SDS011;11936;50.820;4.336;2024-02-26T05:11:54;3.10;;;2.63;;
23519;SDS011;11936;50.820;4.336;2024-02-26T05:14:19;2.65;;;2.45;;
23519;SDS011;11936;50.820;4.336;2024-02-26T05:16:46;5.68;;;2.42;;
23519;SDS011;11936;50.820;4.336;2024-02-26T05:19:12;2.97;;;2.28;;
23519;SDS011;11936;50.820;4.336;2024-02-26T05:21:38;3.63;;;2.60;;
23519;SDS011;11936;50.820;4.336;2024-02-26T05:24:04;2.50;;;2.30;;
23519;SDS011;11936;50.820;4.336;2024-02-26T05:26:31;2.50;;;2.28;;
23519;SDS011;11936;50.820;4.336;2024-02-26T05:28:56;4.35;;;2.75;;
23519;SDS011;11936;50.820;4.336;2024-02-26T05:31:24;5.00;;;3.17;;
23519;SDS011;11936;50.820;4.336;2024-02-26T05:33:50;3.83;;;2.90;;
23519;SDS011;11936;50.820;4.336;2024-02-26T05:36:19;3.70;;;2.88;;
23519;SDS011;11936;50.820;4.336;2024-02-26T05:38:47;3.47;;;3.17;;
23519;SDS011;11936;50.820;4.336;2024-02-26T05:41:13;5.15;;;3.10;;
23519;SDS011;11936;50.820;4.336;2024-02-26T05:43:48;3.47;;;3.17;;
23519;SDS011;11936;50.820;4.336;2024-02-26T05:46:16;4.63;;;3.75;;
23519;SDS011;11936;50.820;4.336;2024-02-26T05:48:49;4.15;;;3.72;;
23519;SDS011;11936;50.820;4.336;2024-02-26T05:51:16;5.00;;;4.15;;
23519;SDS011;11936;50.820;4.336;2024-02-26T05:53:41;4.60;;;4.00;;
23519;SDS011;11936;50.820;4.336;2024-02-26T05:56:07;5.78;;;4.28;;
23519;SDS011;11936;50.820;4.336;2024-02-26T05:58:32;5.07;;;4.28;;
23519;SDS011;11936;50.820;4.336;2024-02-26T06:00:58;6.75;;;4.35;;
23519;SDS011;11936;50.820;4.336;2024-02-26T06:03:25;6.57;;;4.72;;
23519;SDS011;11936;50.820;4.336;2024-02-26T06:05:51;6.32;;;4.90;;
23519;SDS011;11936;50.820;4.336;2024-02-26T06:08:16;6.50;;;4.72;;
23519;SDS011;11936;50.820;4.336;2024-02-26T06:10:42;5.28;;;4.78;;
23519;SDS011;11936;50.820;4.336;2024-02-26T06:13:07;6.32;;;4.68;;
23519;SDS011;11936;50.820;4.336;2024-02-26T06:15:33;5.72;;;4.93;;
23519;SDS011;11936;50.820;4.336;2024-02-26T06:17:59;6.15;;;4.38;;
23519;SDS011;11936;50.820;4.336;2024-02-26T06:20:24;7.50;;;5.47;;
23519;SDS011;11936;50.820;4.336;2024-02-26T06:22:50;5.00;;;4.50;;
23519;SDS011;11936;50.820;4.336;2024-02-26T06:25:16;5.85;;;4.60;;
23519;SDS011;11936;50.820;4.336;2024-02-26T06:27:41;4.75;;;3.83;;
23519;SDS011;11936;50.820;4.336;2024-02-26T06:30:07;6.40;;;4.40;;
23519;SDS011;11936;50.820;4.336;2024-02-26T06:32:35;5.55;;;4.90;;
23519;SDS011;11936;50.820;4.336;2024-02-26T06:35:04;4.47;;;4.07;;
23519;SDS011;11936;50.820;4.336;2024-02-26T06:39:58;5.47;;;4.63;;
23519;SDS011;11936;50.820;4.336;2024-02-26T06:42:24;7.95;;;4.13;;
23519;SDS011;11936;50.820;4.336;2024-02-26T06:44:50;5.10;;;4.60;;
23519;SDS011;11936;50.820;4.336;2024-02-26T06:47:16;5.43;;;4.78;;
23519;SDS011;11936;50.820;4.336;2024-02-26T06:49:41;7.45;;;4.50;;
23519;SDS011;11936;50.820;4.336;2024-02-26T06:52:07;5.53;;;4.60;;
23519;SDS011;11936;50.820;4.336;2024-02-26T06:54:32;5.03;;;4.28;;
23519;SDS011;11936;50.820;4.336;2024-02-26T06:56:58;5.35;;;4.30;;
23519;SDS011;11936;50.820;4.336;2024-02-26T06:59:24;4.65;;;4.03;;
23519;SDS011;11936;50.820;4.336;2024-02-26T07:01:49;7.10;;;4.43;;
23519;SDS011;11936;50.820;4.336;2024-02-26T07:04:15;7.03;;;4.53;;
23519;SDS011;11936;50.820;4.336;2024-02-26T07:06:41;5.85;;;4.47;;
23519;SDS011;11936;50.820;4.336;2024-02-26T07:09:08;5.38;;;4.80;;
23519;SDS011;11936;50.820;4.336;2024-02-26T07:11:33;5.93;;;4.63;;
23519;SDS011;11936;50.820;4.336;2024-02-26T07:13:59;5.50;;;4.40;;
23519;SDS011;11936;50.820;4.336;2024-02-26T07:16:26;4.82;;;4.38;;
23519;SDS011;11936;50.820;4.336;2024-02-26T07:18:52;6.88;;;5.15;;
23519;SDS011;11936;50.820;4.336;2024-02-26T07:21:17;5.43;;;4.75;;
23519;SDS011;11936;50.820;4.336;2024-02-26T07:23:43;7.35;;;4.97;;
23519;SDS011;11936;50.820;4.336;2024-02-26T07:26:08;7.35;;;5.32;;
23519;SDS011;11936;50.820;4.336;2024-02-26T07:28:36;4.80;;;4.40;;
23519;SDS011;11936;50.820;4.336;2024-02-26T07:31:02;5.20;;;4.63;;
23519;SDS011;11936;50.820;4.336;2024-02-26T07:33:28;7.20;;;4.72;;
23519;SDS011;11936;50.820;4.336;2024-02-26T07:35:54;5.28;;;4.78;;
23519;SDS011;11936;50.820;4.336;2024-02-26T07:38:19;7.85;;;4.97;;
23519;SDS011;11936;50.820;4.336;2024-02-26T07:40:45;5.43;;;4.90;;
23519;SDS011;11936;50.820;4.336;2024-02-26T07:43:11;5.70;;;4.55;;
23519;SDS011;11936;50.820;4.336;2024-02-26T07:45:36;6.85;;;4.50;;
23519;SDS011;11936;50.820;4.336;2024-02-26T07:48:02;7.18;;;5.68;;
23519;SDS011;11936;50.820;4.336;2024-02-26T07:50:28;7.82;;;4.80;;
23519;SDS011;11936;50.820;4.336;2024-02-26T07:52:53;5.00;;;4.55;;
23519;SDS011;11936;50.820;4.336;2024-02-26T07:55:19;5.32;;;4.90;;
23519;SDS011;11936;50.820;4.336;2024-02-26T07:57:45;6.20;;;5.60;;
23519;SDS011;11936;50.820;4.336;2024-02-26T08:00:10;5.90;;;5.10;;
23519;SDS011;11936;50.820;4.336;2024-02-26T08:02:37;5.88;;;5.03;;
23519;SDS011;11936;50.820;4.336;2024-02-26T08:05:02;4.63;;;4.22;;
23519;SDS011;11936;50.820;4.336;2024-02-26T08:07:28;5.10;;;4.43;;
23519;SDS011;11936;50.820;4.336;2024-02-26T08:09:54;8.10;;;4.90;;
23519;SDS011;11936;50.820;4.336;2024-02-26T08:12:19;8.30;;;4.70;;
23519;SDS011;11936;50.820;4.336;2024-02-26T08:14:45;5.72;;;4.40;;
23519;SDS011;11936;50.820;4.336;2024-02-26T08:17:11;4.90;;;4.38;;
23519;SDS011;11936;50.820;4.336;2024-02-26T08:19:36;5.65;;;5.00;;
23519;SDS011;11936;50.820;4.336;2024-02-26T08:22:02;5.25;;;4.05;;
23519;SDS011;11936;50.820;4.336;2024-02-26T08:24:28;4.13;;;3.72;;
23519;SDS011;11936;50.820;4.336;2024-02-26T08:26:54;6.93;;;4.45;;
23519;SDS011;11936;50.820;4.336;2024-02-26T08:29:19;4.70;;;3.88;;
23519;SDS011;11936;50.820;4.336;2024-02-26T08:31:45;5.65;;;4.40;;
23519;SDS011;11936;50.820;4.336;2024-02-26T08:34:11;4.30;;;3.90;;
23519;SDS011;11936;50.820;4.336;2024-02-26T08:36:36;6.13;;;4.00;;
23519;SDS011;11936;50.820;4.336;2024-02-26T08:39:02;4.40;;;3.88;;
23519;SDS011;11936;50.820;4.336;2024-02-26T08:41:28;4.82;;;4.40;;
23519;SDS011;11936;50.820;4.336;2024-02-26T08:43:54;5.13;;;4.57;;
23519;SDS011;11936;50.820;4.336;2024-02-26T08:46:19;6.70;;;4.90;;
23519;SDS011;11936;50.820;4.336;2024-02-26T08:48:45;4.65;;;4.25;;
23519;SDS011;11936;50.820;4.336;2024-02-26T08:51:11;6.22;;;4.78;;
23519;SDS011;11936;50.820;4.336;2024-02-26T08:53:38;6.18;;;5.57;;
23519;SDS011;11936;50.820;4.336;2024-02-26T08:56:03;9.60;;;7.78;;
23519;SDS011;11936;50.820;4.336;2024-02-26T08:58:30;8.73;;;6.63;;
23519;SDS011;11936;50.820;4.336;2024-02-26T09:00:55;7.13;;;6.43;;
23519;SDS011;11936;50.820;4.336;2024-02-26T09:03:21;8.43;;;5.70;;
23519;SDS011;11936;50.820;4.336;2024-02-26T09:05:47;6.57;;;5.65;;
23519;SDS011;11936;50.820;4.336;2024-02-26T09:08:13;6.32;;;4.97;;
23519;SDS011;11936;50.820;4.336;2024-02-26T09:10:38;7.38;;;5.55;;
23519;SDS011;11936;50.820;4.336;2024-02-26T09:13:04;9.23;;;5.65;;
23519;SDS011;11936;50.820;4.336;2024-02-26T09:15:35;6.35;;;5.10;;
23519;SDS011;11936;50.820;4.336;2024-02-26T09:20:29;6.05;;;5.03;;
23519;SDS011;11936;50.820;4.336;2024-02-26T09:22:55;7.07;;;5.10;;
23519;SDS011;11936;50.820;4.336;2024-02-26T09:25:21;7.50;;;5.55;;
23519;SDS011;11936;50.820;4.336;2024-02-26T09:27:47;8.70;;;6.85;;
23519;SDS011;11936;50.820;4.336;2024-02-26T09:30:13;9.18;;;7.22;;
23519;SDS011;11936;50.820;4.336;2024-02-26T09:32:39;7.20;;;5.82;;
23519;SDS011;11936;50.820;4.336;2024-02-26T09:35:05;6.50;;;5.78;;
23519;SDS011;11936;50.820;4.336;2024-02-26T09:37:31;9.45;;;6.97;;
23519;SDS011;11936;50.820;4.336;2024-02-26T09:39:58;9.68;;;8.68;;
23519;SDS011;11936;50.820;4.336;2024-02-26T09:42:27;10.15;;;6.68;;
23519;SDS011;11936;50.820;4.336;2024-02-26T09:44:54;6.47;;;5.00;;
23519;SDS011;11936;50.820;4.336;2024-02-26T09:47:20;4.82;;;4.30;;
23519;SDS011;11936;50.820;4.336;2024-02-26T09:49:48;4.82;;;4.30;;
23519;SDS011;11936;50.820;4.336;2024-02-26T09:52:15;10.57;;;4.80;;
23519;SDS011;11936;50.820;4.336;2024-02-26T09:54:41;4.57;;;4.18;;
23519;SDS011;11936;50.820;4.336;2024-02-26T09:57:11;4.70;;;4.25;;
23519;SDS011;11936;50.820;4.336;2024-02-26T09:59:42;4.38;;;3.97;;
23519;SDS011;11936;50.820;4.336;2024-02-26T10:02:12;6.72;;;4.55;;
23519;SDS011;11936;50.820;4.336;2024-02-26T10:04:39;5.70;;;3.90;;
23519;SDS011;11936;50.820;4.336;2024-02-26T10:07:09;3.63;;;3.33;;
23519;SDS011;11936;50.820;4.336;2024-02-26T10:09:35;7.57;;;4.13;;
23519;SDS011;11936;50.820;4.336;2024-02-26T10:12:01;4.38;;;3.95;;
23519;SDS011;11936;50.820;4.336;2024-02-26T10:14:28;6.78;;;5.20;;
23519;SDS011;11936;50.820;4.336;2024-02-26T10:16:53;6.32;;;5.72;;
23519;SDS011;11936;50.820;4.336;2024-02-26T10:19:25;5.18;;;4.78;;
23519;SDS011;11936;50.820;4.336;2024-02-26T10:21:58;5.68;;;4.53;;
23519;SDS011;11936;50.820;4.336;2024-02-26T10:24:26;5.35;;;4.72;;
23519;SDS011;11936;50.820;4.336;2024-02-26T10:26:52;5.85;;;4.72;;
23519;SDS011;11936;50.820;4.336;2024-02-26T10:29:20;4.65;;;4.13;;
23519;SDS011;11936;50.820;4.336;2024-02-26T10:31:50;4.22;;;3.83;;
23519;SDS011;11936;50.820;4.336;2024-02-26T10:34:16;3.67;;;3.38;;
23519;SDS011;11936;50.820;4.336;2024-02-26T10:36:42;4.40;;;3.97;;
23519;SDS011;11936;50.820;4.336;2024-02-26T10:39:09;3.67;;;3.38;;
23519;SDS011;11936;50.820;4.336;2024-02-26T10:41:37;5.57;;;3.58;;
23519;SDS011;11936;50.820;4.336;2024-02-26T10:44:03;7.28;;;4.38;;
23519;SDS011;11936;50.820;4.336;2024-02-26T10:46:29;3.33;;;3.03;;
23519;SDS011;11936;50.820;4.336;2024-02-26T10:48:55;7.00;;;3.22;;
23519;SDS011;11936;50.820;4.336;2024-02-26T10:51:28;4.03;;;3.63;;
23519;SDS011;11936;50.820;4.336;2024-02-26T10:53:59;4.25;;;2.90;;
23519;SDS011;11936;50.820;4.336;2024-02-26T10:56:29;3.33;;;3.05;;
23519;SDS011;11936;50.820;4.336;2024-02-26T10:58:58;3.42;;;2.65;;
23519;SDS011;11936;50.820;4.336;2024-02-26T11:01:24;3.30;;;2.65;;
23519;SDS011;11936;50.820;4.336;2024-02-26T11:03:52;3.53;;;3.13;;
23519;SDS011;11936;50.820;4.336;2024-02-26T11:06:18;2.80;;;2.60;;
23519;SDS011;11936;50.820;4.336;2024-02-26T11:08:52;4.63;;;2.90;;
23519;SDS011;11936;50.820;4.336;2024-02-26T11:11:18;3.08;;;2.78;;
23519;SDS011;11936;50.820;4.336;2024-02-26T11:13:46;2.47;;;2.28;;
23519;SDS011;11936;50.820;4.336;2024-02-26T11:16:19;2.65;;;2.45;;
23519;SDS011;11936;50.820;4.336;2024-02-26T11:18:47;3.03;;;2.38;;
23519;SDS011;11936;50.820;4.336;2024-02-26T11:21:16;3.38;;;2.38;;
23519;SDS011;11936;50.820;4.336;2024-02-26T11:23:52;2.67;;;2.40;;
23519;SDS011;11936;50.820;4.336;2024-02-26T11:26:18;2.50;;;2.30;;
23519;SDS011;11936;50.820;4.336;2024-02-26T11:28:45;2.33;;;2.13;;
23519;SDS011;11936;50.820;4.336;2024-02-26T11:31:12;2.10;;;2.00;;
23519;SDS011;11936;50.820;4.336;2024-02-26T11:33:38;2.20;;;2.00;;
23519;SDS011;11936;50.820;4.336;2024-02-26T11:36:11;4.53;;;2.45;;
23519;SDS011;11936;50.820;4.336;2024-02-26T11:38:37;2.35;;;2.15;;
23519;SDS011;11936;50.820;4.336;2024-02-26T11:41:04;2.08;;;1.98;;
23519;SDS011;11936;50.820;4.336;2024-02-26T11:46:26;2.92;;;2.28;;
23519;SDS011;11936;50.820;4.336;2024-02-26T11:48:59;2.92;;;2.22;;
23519;SDS011;11936;50.820;4.336;2024-02-26T11:51:27;2.08;;;1.88;;
23519;SDS011;11936;50.820;4.336;2024-02-26T11:53:57;3.80;;;2.00;;
23519;SDS011;11936;50.820;4.336;2024-02-26T11:56:23;5.45;;;2.10;;
23519;SDS011;11936;50.820;4.336;2024-02-26T11:59:04;2.40;;;2.20;;
23519;SDS011;11936;50.820;4.336;2024-02-26T12:04:18;2.20;;;1.83;;
23519;SDS011;11936;50.820;4.336;2024-02-26T12:06:47;2.03;;;1.92;;
23519;SDS011;11936;50.820;4.336;2024-02-26T12:12:06;1.88;;;1.77;;
23519;SDS011;11936;50.820;4.336;2024-02-26T12:14:34;2.28;;;2.10;;
23519;SDS011;11936;50.820;4.336;2024-02-26T12:17:22;2.53;;;2.33;;
23519;SDS011;11936;50.820;4.336;2024-02-26T12:19:49;2.03;;;1.83;;
23519;SDS011;11936;50.820;4.336;2024-02-26T12:22:16;2.15;;;1.95;;
23519;SDS011;11936;50.820;4.336;2024-02-26T12:24:42;2.45;;;2.05;;
23519;SDS011;11936;50.820;4.336;2024-02-26T12:27:08;2.40;;;2.20;;
23519;SDS011;11936;50.820;4.336;2024-02-26T12:29:34;2.10;;;1.90;;
23519;SDS011;11936;50.820;4.336;2024-02-26T12:32:00;2.40;;;2.20;;
23519;SDS011;11936;50.820;4.336;2024-02-26T12:34:26;6.38;;;2.10;;
23519;SDS011;11936;50.820;4.336;2024-02-26T12:36:53;2.70;;;2.47;;
23519;SDS011;11936;50.820;4.336;2024-02-26T12:39:19;4.47;;;2.67;;
23519;SDS011;11936;50.820;4.336;2024-02-26T12:41:45;3.40;;;2.42;;
23519;SDS011;11936;50.820;4.336;2024-02-26T12:44:15;3.25;;;2.65;;
23519;SDS011;11936;50.820;4.336;2024-02-26T12:46:44;2.00;;;1.90;;
23519;SDS011;11936;50.820;4.336;2024-02-26T12:49:14;2.38;;;2.17;;
23519;SDS011;11936;50.820;4.336;2024-02-26T12:51:40;2.28;;;2.08;;
23519;SDS011;11936;50.820;4.336;2024-02-26T12:54:06;2.65;;;2.10;;
23519;SDS011;11936;50.820;4.336;2024-02-26T12:56:33;2.40;;;2.20;;
23519;SDS011;11936;50.820;4.336;2024-02-26T12:58:59;4.18;;;2.35;;
23519;SDS011;11936;50.820;4.336;2024-02-26T13:01:25;2.97;;;2.67;;
23519;SDS011;11936;50.820;4.336;2024-02-26T13:03:52;2.53;;;1.92;;
23519;SDS011;11936;50.820;4.336;2024-02-26T13:06:18;2.22;;;2.03;;
23519;SDS011;11936;50.820;4.336;2024-02-26T13:08:45;2.45;;;2.25;;
23519;SDS011;11936;50.820;4.336;2024-02-26T13:11:11;2.13;;;1.92;;
23519;SDS011;11936;50.820;4.336;2024-02-26T13:13:37;2.50;;;2.30;;
23519;SDS011;11936;50.820;4.336;2024-02-26T13:16:03;3.53;;;2.42;;
23519;SDS011;11936;50.820;4.336;2024-02-26T13:18:35;4.05;;;2.63;;
23519;SDS011;11936;50.820;4.336;2024-02-26T13:21:11;3.22;;;2.20;;
23519;SDS011;11936;50.820;4.336;2024-02-26T13:23:39;2.58;;;2.38;;
23519;SDS011;11936;50.820;4.336;2024-02-26T13:26:05;3.28;;;2.80;;
23519;SDS011;11936;50.820;4.336;2024-02-26T13:28:31;5.43;;;3.20;;
23519;SDS011;11936;50.820;4.336;2024-02-26T13:30:57;11.52;;;2.70;;
23519;SDS011;11936;50.820;4.336;2024-02-26T13:33:25;3.58;;;2.80;;
23519;SDS011;11936;50.820;4.336;2024-02-26T13:35:51;2.88;;;2.67;;
23519;SDS011;11936;50.820;4.336;2024-02-26T13:38:17;3.85;;;3.05;;
23519;SDS011;11936;50.820;4.336;2024-02-26T13:40:43;3.47;;;2.50;;
23519;SDS011;11936;50.820;4.336;2024-02-26T13:43:09;3.22;;;2.95;;
23519;SDS011;11936;50.820;4.336;2024-02-26T13:45:35;3.05;;;2.75;;
23519;SDS011;11936;50.820;4.336;2024-02-26T13:48:03;3.70;;;3.13;;
23519;SDS011;11936;50.820;4.336;2024-02-26T13:50:30;4.25;;;3.35;;
23519;SDS011;11936;50.820;4.336;2024-02-26T13:52:56;4.13;;;3.20;;
23519;SDS011;11936;50.820;4.336;2024-02-26T13:55:22;4.30;;;3.78;;
23519;SDS011;11936;50.820;4.336;2024-02-26T13:57:51;4.18;;;3.67;;
23519;SDS011;11936;50.820;4.336;2024-02-26T14:00:18;8.60;;;3.97;;
23519;SDS011;11936;50.820;4.336;2024-02-26T14:02:44;5.50;;;3.67;;
23519;SDS011;11936;50.820;4.336;2024-02-26T14:05:10;3.90;;;3.50;;
23519;SDS011;11936;50.820;4.336;2024-02-26T14:07:36;4.25;;;3.85;;
23519;SDS011;11936;50.820;4.336;2024-02-26T14:10:02;6.00;;;4.07;;
23519;SDS011;11936;50.820;4.336;2024-02-26T14:12:28;6.53;;;4.63;;
23519;SDS011;11936;50.820;4.336;2024-02-26T14:14:53;6.28;;;4.25;;
23519;SDS011;11936;50.820;4.336;2024-02-26T14:17:20;5.43;;;4.10;;
23519;SDS011;11936;50.820;4.336;2024-02-26T14:19:46;4.45;;;3.47;;
23519;SDS011;11936;50.820;4.336;2024-02-26T14:22:13;4.35;;;3.95;;
23519;SDS011;11936;50.820;4.336;2024-02-26T14:24:42;8.32;;;4.47;;
23519;SDS011;11936;50.820;4.336;2024-02-26T14:27:08;5.47;;;3.95;;
23519;SDS011;11936;50.820;4.336;2024-02-26T14:29:35;5.20;;;3.92;;
23519;SDS011;11936;50.820;4.336;2024-02-26T14:32:02;3.80;;;3.47;;
23519;SDS011;11936;50.820;4.336;2024-02-26T14:34:28;4.80;;;4.10;;
23519;SDS011;11936;50.820;4.336;2024-02-26T14:36:54;5.30;;;4.50;;
23519;SDS011;11936;50.820;4.336;2024-02-26T14:39:20;5.03;;;4.35;;
23519;SDS011;11936;50.820;4.336;2024-02-26T14:41:46;5.00;;;4.50;;
23519;SDS011;11936;50.820;4.336;2024-02-26T14:44:11;4.70;;;4.10;;
23519;SDS011;11936;50.820;4.336;2024-02-26T14:46:37;5.95;;;4.63;;
23519;SDS011;11936;50.820;4.336;2024-02-26T14:49:03;5.43;;;4.47;;
23519;SDS011;11936;50.820;4.336;2024-02-26T14:51:29;6.15;;;4.47;;
23519;SDS011;11936;50.820;4.336;2024-02-26T14:53:54;5.82;;;5.18;;
23519;SDS011;11936;50.820;4.336;2024-02-26T14:56:20;4.78;;;4.07;;
23519;SDS011;11936;50.820;4.336;2024-02-26T14:58:45;6.10;;;4.65;;